Latest Coastal Weather Observations for Bedout Island

IDW60701

Issued at 7:05 pm WST Sunday 23 November 2014 (issued every 10 minutes, with the page automatically refreshed every 10 minutes)

About coastal observations | Map of coastal stations | Coastal observations for WA | Marine services | Other Formats
Station Details ID: 004100 Name: BEDOUT ISLAND Lat: -19.59 Lon: 119.10 Height: 8.6 m
Data from the previous 72 hours. | See also: Recent months for locations in Western Australia
Date/Time
WST
Temp

°C
Wind Pressure Rain
since 9am
mm
Weather Cloud Vis
km
Sea
Height
m
Swell
Dir
 
Speed
knots
Gust
knots
hPa Trend Height
m
Period
s
Dir
23/07:00pm 27.5 WNW 15 17 1008.8 - - - - - - - - -
23/06:30pm 27.7 WNW 16 18 1008.2 - - - - - - - - -
23/06:00pm 28.3 WNW 16 18 1008.0 - - - - - - - - -
23/05:30pm 28.4 WNW 16 19 1007.9 - - - - - - - - -
23/05:00pm 29.7 WNW 17 18 1007.7 - - - - - - - - -
23/04:30pm 29.2 WNW 15 17 1007.7 - - - - - - - - -
23/04:00pm 30.6 WNW 15 17 1007.6 - - - - - - - - -
23/03:30pm 31.1 WNW 13 16 1007.7 - - - - - - - - -
23/03:00pm 31.5 WNW 13 15 1007.9 - - - - - - - - -
23/02:30pm 31.6 WNW 12 14 1008.3 - - - - - - - - -
23/02:00pm 31.5 W 12 14 1008.2 - - - - - - - - -
23/01:30pm 31.9 WNW 12 14 1008.7 - - - - - - - - -
23/01:00pm 32.2 W 13 15 1009.0 - - - - - - - - -
23/12:30pm 31.7 W 13 15 1009.3 - - - - - - - - -
23/12:00pm 31.7 W 14 16 1009.5 - - - - - - - - -
23/11:30am 31.6 W 16 17 1009.8 - - - - - - - - -
23/11:00am 32.2 W 13 15 1009.8 - - - - - - - - -
23/10:30am 31.3 W 13 15 1010.2 - - - - - - - - -
23/10:00am 30.7 W 14 15 1010.3 - - - - - - - - -
23/09:30am 30.5 W 15 17 1010.4 - - - - - - - - -
23/09:00am 30.1 W 16 18 1010.2 - - - - - - - - -
23/08:30am 30.1 W 15 17 1010.4 - - - - - - - - -
23/08:00am 29.2 W 16 18 1010.0 - - - - - - - - -
23/07:30am 28.5 W 16 18 1009.7 - - - - - - - - -
23/07:00am 27.9 W 17 20 1009.5 - - - - - - - - -
23/06:30am 27.4 W 17 20 1009.3 - - - - - - - - -
23/06:00am 26.8 W 17 19 1008.9 - - - - - - - - -
23/05:30am 26.4 WNW 16 19 1008.8 - - - - - - - - -
23/05:00am 26.4 WNW 16 19 1008.5 - - - - - - - - -
23/04:30am 26.6 W 16 17 1008.2 - - - - - - - - -
23/04:00am 26.7 W 17 18 1008.1 - - - - - - - - -
23/03:30am 26.9 W 16 18 1008.2 - - - - - - - - -
23/03:00am 27.1 W 17 18 1007.9 - - - - - - - - -
23/02:30am 27.2 W 16 18 1008.0 - - - - - - - - -
23/02:00am 27.2 W 14 16 1007.9 - - - - - - - - -
23/01:30am 27.3 W 14 16 1008.2 - - - - - - - - -
23/01:00am 27.4 W 14 17 1008.5 - - - - - - - - -
23/12:30am 27.3 W 15 17 1008.6 - - - - - - - - -
23/12:00am 27.4 W 16 19 1008.8 - - - - - - - - -
 
Date/Time
WST
Temp

°C
Wind Pressure Rain
since 9am
mm
Weather Cloud Vis
km
Sea
Height
m
Swell
Dir
 
Speed
knots
Gust
knots
hPa Trend Height
m
Period
s
Dir
22/11:30pm 27.6 W 16 18 1009.1 - - - - - - - - -
22/11:00pm 27.5 W 15 17 1009.3 - - - - - - - - -
22/10:30pm 27.7 W 15 16 1009.6 - - - - - - - - -
22/10:00pm 27.6 W 15 17 1009.7 - - - - - - - - -
22/09:30pm 27.6 W 15 17 1009.6 - - - - - - - - -
22/09:00pm 27.8 W 15 17 1009.5 - - - - - - - - -
22/08:30pm 28.0 W 15 17 1009.5 - - - - - - - - -
22/08:00pm 28.2 W 17 19 1009.2 - - - - - - - - -
22/07:30pm 28.0 W 15 17 1009.2 - - - - - - - - -
22/07:00pm 28.1 W 15 16 1008.9 - - - - - - - - -
22/06:30pm 28.3 W 17 19 1008.7 - - - - - - - - -
22/06:00pm 28.4 W 16 19 1008.5 - - - - - - - - -
22/05:30pm 29.6 W 16 17 1008.5 - - - - - - - - -
22/05:00pm 29.6 W 15 17 1008.3 - - - - - - - - -
22/04:30pm 29.6 W 14 17 1008.2 - - - - - - - - -
22/04:00pm 30.8 W 15 17 1008.1 - - - - - - - - -
22/03:30pm 31.4 W 12 14 1008.3 - - - - - - - - -
22/03:00pm 32.6 W 12 15 1008.3 - - - - - - - - -
22/02:30pm 32.4 W 14 16 1008.8 - - - - - - - - -
22/02:00pm 31.8 W 17 20 1009.1 - - - - - - - - -
22/01:30pm 32.3 W 16 18 1009.5 - - - - - - - - -
22/01:00pm 32.0 W 15 17 1009.5 - - - - - - - - -
22/12:30pm 32.3 WNW 14 16 1009.7 - - - - - - - - -
22/12:00pm 32.3 W 14 17 1009.6 - - - - - - - - -
22/11:30am 32.2 W 11 13 1009.9 - - - - - - - - -
22/11:00am 31.4 W 10 12 1010.1 - - - - - - - - -
22/10:30am 32.4 W 11 13 1010.3 - - - - - - - - -
22/10:00am 30.8 W 10 13 1010.5 - - - - - - - - -
22/09:30am 29.9 W 13 16 1010.2 - - - - - - - - -
22/09:00am 28.7 WSW 19 23 1009.7 - - - - - - - - -
22/08:30am 28.2 WSW 21 23 1009.6 - - - - - - - - -
22/08:18am 28.1 SW 21 24 1009.3 - - - - - - - - -
22/08:00am 27.9 W 22 25 1009.6 - - - - - - - - -
22/07:30am 27.8 W 21 24 1009.7 - - - - - - - - -
22/07:00am 27.6 W 20 23 1009.6 - - - - - - - - -
22/06:30am 27.4 W 19 22 1009.3 - - - - - - - - -
22/06:00am 27.4 W 19 21 1008.6 - - - - - - - - -
22/05:30am 27.3 W 17 19 1008.5 - - - - - - - - -
22/05:00am 27.4 W 18 21 1008.1 - - - - - - - - -
22/04:30am 27.7 W 19 22 1007.8 - - - - - - - - -
22/04:00am 27.8 W 22 25 1007.1 - - - - - - - - -
22/03:30am 27.8 W 22 24 1007.2 - - - - - - - - -
22/03:00am 27.9 W 20 23 1007.3 - - - - - - - - -
22/02:30am 27.9 W 20 23 1007.5 - - - - - - - - -
22/02:00am 28.0 WSW 20 23 1007.6 - - - - - - - - -
22/01:30am 28.1 WSW 19 21 1007.8 - - - - - - - - -
22/01:00am 28.0 WSW 18 20 1007.9 - - - - - - - - -
22/12:30am 27.9 W 17 19 1008.2 - - - - - - - - -
22/12:00am 28.0 W 19 22 1008.4 - - - - - - - - -
 
Date/Time
WST
Temp

°C
Wind Pressure Rain
since 9am
mm
Weather Cloud Vis
km
Sea
Height
m
Swell
Dir
 
Speed
knots
Gust
knots
hPa Trend Height
m
Period
s
Dir
21/11:30pm 28.1 W 19 22 1008.6 - - - - - - - - -
21/11:00pm 28.2 W 19 22 1008.9 - - - - - - - - -
21/10:30pm 28.3 W 18 21 1009.0 - - - - - - - - -
21/10:00pm 28.2 W 17 19 1009.2 - - - - - - - - -
21/09:30pm 28.1 W 16 19 1009.1 - - - - - - - - -
21/09:00pm 28.3 W 17 20 1008.9 - - - - - - - - -
21/08:30pm 28.3 W 19 21 1009.0 - - - - - - - - -
21/08:00pm 28.5 W 18 20 1008.9 - - - - - - - - -
21/07:30pm 28.4 W 17 19 1008.7 - - - - - - - - -
21/07:00pm 28.6 W 17 19 1008.4 - - - - - - - - -
21/06:30pm 28.7 W 17 19 1008.1 - - - - - - - - -
21/06:00pm 29.0 W 17 19 1007.9 - - - - - - - - -
21/05:30pm 29.7 W 17 19 1007.7 - - - - - - - - -
21/05:00pm 30.3 W 17 20 1007.6 - - - - - - - - -
21/04:30pm 31.1 W 16 19 1007.6 - - - - - - - - -
21/04:00pm 31.6 W 16 18 1007.7 - - - - - - - - -
21/03:30pm 32.0 W 16 18 1007.9 - - - - - - - - -
21/03:00pm 32.6 W 17 19 1008.0 - - - - - - - - -
21/02:30pm 32.0 W 16 18 1008.4 - - - - - - - - -
21/02:00pm 32.4 W 15 18 1008.6 - - - - - - - - -
21/01:30pm 32.3 W 17 19 1008.7 - - - - - - - - -
21/01:00pm 32.6 W 16 18 1009.2 - - - - - - - - -
21/12:30pm 33.2 W 15 17 1009.4 - - - - - - - - -
21/12:00pm 32.3 W 15 17 1009.6 - - - - - - - - -
21/11:30am 32.5 W 15 17 1009.9 - - - - - - - - -
21/11:00am 32.5 W 15 17 1010.2 - - - - - - - - -
21/10:30am 32.2 W 15 17 1010.5 - - - - - - - - -
21/10:00am 32.0 W 14 17 1010.8 - - - - - - - - -
21/09:30am 31.2 W 15 17 1010.8 - - - - - - - - -
21/09:00am 31.0 W 15 17 1010.8 - - - - - - - - -
21/08:30am 30.7 W 15 16 1010.8 - - - - - - - - -
21/08:00am 30.4 W 15 17 1010.7 - - - - - - - - -
21/07:30am 29.6 W 15 17 1010.4 - - - - - - - - -
21/07:00am 29.1 W 15 17 1010.2 - - - - - - - - -
21/06:30am 28.3 W 15 17 1009.8 - - - - - - - - -
21/06:00am 27.6 W 14 17 1009.4 - - - - - - - - -
21/05:30am 27.2 W 15 17 1009.2 - - - - - - - - -
21/05:00am 27.3 W 15 17 1008.9 - - - - - - - - -
21/04:30am 27.3 W 14 16 1008.8 - - - - - - - - -
21/04:00am 27.3 W 15 17 1008.6 - - - - - - - - -
21/03:30am 27.7 W 15 18 1008.6 - - - - - - - - -
21/03:00am 27.7 W 15 18 1008.4 - - - - - - - - -
21/02:30am 27.9 WSW 17 19 1008.5 - - - - - - - - -
21/02:00am 28.1 WSW 18 22 1008.6 - - - - - - - - -
21/01:30am 28.2 WSW 18 21 1008.8 - - - - - - - - -
21/01:00am 28.1 WSW 16 20 1008.9 - - - - - - - - -
21/12:30am 28.1 WSW 17 19 1009.2 - - - - - - - - -
21/12:00am 28.1 W 16 19 1009.4 - - - - - - - - -
 
Date/Time
WST
Temp

°C
Wind Pressure Rain
since 9am
mm
Weather Cloud Vis
km
Sea
Height
m
Swell
Dir
 
Speed
knots
Gust
knots
hPa Trend Height
m
Period
s
Dir
20/11:30pm 28.1 W 16 19 1009.6 - - - - - - - - -
20/11:00pm 28.2 W 17 19 1009.8 - - - - - - - - -
20/10:30pm 28.0 W 16 18 1009.9 - - - - - - - - -
20/10:00pm 28.0 W 16 19 1010.0 - - - - - - - - -
20/09:30pm 28.1 W 16 18 1010.0 - - - - - - - - -
20/09:00pm 28.2 W 17 19 1009.6 - - - - - - - - -
20/08:30pm 28.4 W 15 17 1009.4 - - - - - - - - -
20/08:00pm 28.5 W 16 19 1009.2 - - - - - - - - -
20/07:30pm 28.6 WNW 15 17 1009.1 - - - - - - - - -

Other Formats:

Comma delimited format used in spreadsheet applications
http://www.bom.gov.au/fwo/IDW60701/IDW60701.94310.axf

JavaScript Object Notation format (JSON) in row-major order
http://www.bom.gov.au/fwo/IDW60701/IDW60701.94310.json